sensor_id;sensor_type;location;lat;lon;timestamp;P1;durP1;ratioP1;P2;durP2;ratioP2
62332;SDS011;48624;49.812;8.562;2023-05-24T00:01:21;454.60;;;437.75;;
62332;SDS011;48624;49.812;8.562;2023-05-24T00:03:52;422.17;;;406.55;;
62332;SDS011;48624;49.812;8.562;2023-05-24T00:06:19;442.38;;;425.60;;
62332;SDS011;48624;49.812;8.562;2023-05-24T00:08:45;440.42;;;423.85;;
62332;SDS011;48624;49.812;8.562;2023-05-24T00:11:10;441.27;;;424.65;;
62332;SDS011;48624;49.812;8.562;2023-05-24T00:13:36;441.58;;;425.02;;
62332;SDS011;48624;49.812;8.562;2023-05-24T00:16:01;445.58;;;428.52;;
62332;SDS011;48624;49.812;8.562;2023-05-24T00:18:27;444.52;;;427.45;;
62332;SDS011;48624;49.812;8.562;2023-05-24T00:20:55;463.08;;;445.58;;
62332;SDS011;48624;49.812;8.562;2023-05-24T00:23:23;470.45;;;452.38;;
62332;SDS011;48624;49.812;8.562;2023-05-24T00:25:49;457.73;;;440.20;;
62332;SDS011;48624;49.812;8.562;2023-05-24T00:28:15;465.73;;;447.30;;
62332;SDS011;48624;49.812;8.562;2023-05-24T00:30:40;475.17;;;457.02;;
62332;SDS011;48624;49.812;8.562;2023-05-24T00:33:06;454.92;;;437.70;;
62332;SDS011;48624;49.812;8.562;2023-05-24T00:35:31;467.05;;;449.38;;
62332;SDS011;48624;49.812;8.562;2023-05-24T00:37:56;437.58;;;421.02;;
62332;SDS011;48624;49.812;8.562;2023-05-24T00:40:22;439.08;;;422.40;;
62332;SDS011;48624;49.812;8.562;2023-05-24T00:42:47;450.13;;;433.38;;
62332;SDS011;48624;49.812;8.562;2023-05-24T00:45:12;447.77;;;430.63;;
62332;SDS011;48624;49.812;8.562;2023-05-24T00:47:38;444.30;;;427.30;;
62332;SDS011;48624;49.812;8.562;2023-05-24T00:50:04;433.58;;;417.45;;
62332;SDS011;48624;49.812;8.562;2023-05-24T00:52:31;450.10;;;433.00;;
62332;SDS011;48624;49.812;8.562;2023-05-24T00:54:57;455.13;;;437.95;;
62332;SDS011;48624;49.812;8.562;2023-05-24T00:57:22;453.08;;;435.95;;
62332;SDS011;48624;49.812;8.562;2023-05-24T00:59:49;429.30;;;413.30;;
62332;SDS011;48624;49.812;8.562;2023-05-24T01:02:15;440.20;;;423.55;;
62332;SDS011;48624;49.812;8.562;2023-05-24T01:04:40;438.52;;;421.65;;
62332;SDS011;48624;49.812;8.562;2023-05-24T01:10:02;431.13;;;414.83;;
62332;SDS011;48624;49.812;8.562;2023-05-24T01:12:51;434.13;;;417.13;;
62332;SDS011;48624;49.812;8.562;2023-05-24T01:23:56;417.05;;;401.65;;
62332;SDS011;48624;49.812;8.562;2023-05-24T01:29:31;414.08;;;398.45;;
62332;SDS011;48624;49.812;8.562;2023-05-24T01:31:58;420.50;;;404.77;;
62332;SDS011;48624;49.812;8.562;2023-05-24T01:34:24;443.17;;;426.55;;
62332;SDS011;48624;49.812;8.562;2023-05-24T01:36:51;434.80;;;418.48;;
62332;SDS011;48624;49.812;8.562;2023-05-24T01:39:16;457.60;;;439.92;;
62332;SDS011;48624;49.812;8.562;2023-05-24T01:41:48;463.15;;;445.42;;
62332;SDS011;48624;49.812;8.562;2023-05-24T01:49:49;425.95;;;410.13;;
62332;SDS011;48624;49.812;8.562;2023-05-24T01:52:21;425.13;;;409.38;;
62332;SDS011;48624;49.812;8.562;2023-05-24T01:54:50;411.10;;;395.98;;
62332;SDS011;48624;49.812;8.562;2023-05-24T01:57:17;426.80;;;410.90;;
62332;SDS011;48624;49.812;8.562;2023-05-24T01:59:44;422.08;;;406.25;;
62332;SDS011;48624;49.812;8.562;2023-05-24T02:02:11;419.65;;;404.08;;
62332;SDS011;48624;49.812;8.562;2023-05-24T02:04:36;432.40;;;415.65;;
62332;SDS011;48624;49.812;8.562;2023-05-24T02:07:02;416.85;;;401.67;;
62332;SDS011;48624;49.812;8.562;2023-05-24T02:09:28;426.77;;;411.23;;
62332;SDS011;48624;49.812;8.562;2023-05-24T02:11:53;420.38;;;404.83;;
62332;SDS011;48624;49.812;8.562;2023-05-24T02:14:18;427.02;;;410.58;;
62332;SDS011;48624;49.812;8.562;2023-05-24T02:16:45;434.25;;;418.10;;
62332;SDS011;48624;49.812;8.562;2023-05-24T02:19:11;425.83;;;409.98;;
62332;SDS011;48624;49.812;8.562;2023-05-24T02:21:37;437.55;;;421.42;;
62332;SDS011;48624;49.812;8.562;2023-05-24T02:24:02;437.27;;;420.50;;
62332;SDS011;48624;49.812;8.562;2023-05-24T02:26:28;436.85;;;420.13;;
62332;SDS011;48624;49.812;8.562;2023-05-24T02:28:53;421.25;;;405.60;;
62332;SDS011;48624;49.812;8.562;2023-05-24T02:31:19;423.88;;;407.77;;
62332;SDS011;48624;49.812;8.562;2023-05-24T02:33:45;432.77;;;416.23;;
62332;SDS011;48624;49.812;8.562;2023-05-24T02:36:10;427.55;;;411.70;;
62332;SDS011;48624;49.812;8.562;2023-05-24T02:38:36;450.98;;;433.85;;
62332;SDS011;48624;49.812;8.562;2023-05-24T02:41:02;420.45;;;404.63;;
62332;SDS011;48624;49.812;8.562;2023-05-24T02:43:27;448.58;;;431.38;;
62332;SDS011;48624;49.812;8.562;2023-05-24T02:45:52;422.20;;;406.42;;
62332;SDS011;48624;49.812;8.562;2023-05-24T02:48:18;424.25;;;408.60;;
62332;SDS011;48624;49.812;8.562;2023-05-24T02:50:43;430.85;;;414.40;;
62332;SDS011;48624;49.812;8.562;2023-05-24T02:53:08;421.98;;;406.13;;
62332;SDS011;48624;49.812;8.562;2023-05-24T02:55:33;432.73;;;415.83;;
62332;SDS011;48624;49.812;8.562;2023-05-24T02:57:59;432.73;;;416.70;;
62332;SDS011;48624;49.812;8.562;2023-05-24T03:00:25;424.77;;;409.40;;
62332;SDS011;48624;49.812;8.562;2023-05-24T03:02:50;429.55;;;413.33;;
62332;SDS011;48624;49.812;8.562;2023-05-24T03:05:16;429.80;;;413.95;;
62332;SDS011;48624;49.812;8.562;2023-05-24T03:07:42;434.92;;;418.65;;
62332;SDS011;48624;49.812;8.562;2023-05-24T03:10:07;434.42;;;418.23;;
62332;SDS011;48624;49.812;8.562;2023-05-24T03:12:33;439.30;;;422.73;;
62332;SDS011;48624;49.812;8.562;2023-05-24T03:14:58;446.60;;;429.98;;
62332;SDS011;48624;49.812;8.562;2023-05-24T03:17:23;448.55;;;431.90;;
62332;SDS011;48624;49.812;8.562;2023-05-24T03:19:48;426.02;;;409.95;;
62332;SDS011;48624;49.812;8.562;2023-05-24T03:22:14;419.85;;;404.08;;
62332;SDS011;48624;49.812;8.562;2023-05-24T03:24:40;422.10;;;406.60;;
62332;SDS011;48624;49.812;8.562;2023-05-24T03:27:05;424.20;;;408.42;;
62332;SDS011;48624;49.812;8.562;2023-05-24T03:29:30;403.20;;;387.70;;
62332;SDS011;48624;49.812;8.562;2023-05-24T03:31:56;414.67;;;399.63;;
62332;SDS011;48624;49.812;8.562;2023-05-24T03:34:21;421.80;;;405.92;;
62332;SDS011;48624;49.812;8.562;2023-05-24T03:36:47;438.80;;;420.15;;
62332;SDS011;48624;49.812;8.562;2023-05-24T03:39:12;397.25;;;380.88;;
62332;SDS011;48624;49.812;8.562;2023-05-24T03:41:37;385.85;;;371.15;;
62332;SDS011;48624;49.812;8.562;2023-05-24T03:44:03;408.20;;;393.60;;
62332;SDS011;48624;49.812;8.562;2023-05-24T03:46:28;361.10;;;347.95;;
62332;SDS011;48624;49.812;8.562;2023-05-24T03:48:53;326.30;;;314.95;;
62332;SDS011;48624;49.812;8.562;2023-05-24T03:51:19;318.63;;;307.48;;
62332;SDS011;48624;49.812;8.562;2023-05-24T03:53:44;338.38;;;326.05;;
62332;SDS011;48624;49.812;8.562;2023-05-24T03:56:10;337.35;;;324.85;;
62332;SDS011;48624;49.812;8.562;2023-05-24T03:58:35;297.05;;;286.30;;
62332;SDS011;48624;49.812;8.562;2023-05-24T04:01:01;314.67;;;303.25;;
62332;SDS011;48624;49.812;8.562;2023-05-24T04:03:26;305.60;;;294.63;;
62332;SDS011;48624;49.812;8.562;2023-05-24T04:05:52;349.33;;;336.63;;
62332;SDS011;48624;49.812;8.562;2023-05-24T04:08:17;335.35;;;323.00;;
62332;SDS011;48624;49.812;8.562;2023-05-24T04:10:43;335.75;;;323.42;;
62332;SDS011;48624;49.812;8.562;2023-05-24T04:13:08;344.00;;;331.60;;
62332;SDS011;48624;49.812;8.562;2023-05-24T04:15:33;376.40;;;362.95;;
62332;SDS011;48624;49.812;8.562;2023-05-24T04:17:59;352.83;;;340.13;;
62332;SDS011;48624;49.812;8.562;2023-05-24T04:20:27;322.88;;;311.52;;
62332;SDS011;48624;49.812;8.562;2023-05-24T04:22:53;356.60;;;343.65;;
62332;SDS011;48624;49.812;8.562;2023-05-24T04:25:19;378.10;;;363.90;;
62332;SDS011;48624;49.812;8.562;2023-05-24T04:27:45;365.65;;;352.23;;
62332;SDS011;48624;49.812;8.562;2023-05-24T04:30:14;372.63;;;359.13;;
62332;SDS011;48624;49.812;8.562;2023-05-24T04:32:40;293.20;;;283.15;;
62332;SDS011;48624;49.812;8.562;2023-05-24T04:35:08;349.30;;;335.88;;
62332;SDS011;48624;49.812;8.562;2023-05-24T04:37:33;320.40;;;309.33;;
62332;SDS011;48624;49.812;8.562;2023-05-24T04:39:59;300.15;;;289.33;;
62332;SDS011;48624;49.812;8.562;2023-05-24T04:42:24;285.08;;;274.52;;
62332;SDS011;48624;49.812;8.562;2023-05-24T04:44:51;249.18;;;240.48;;
62332;SDS011;48624;49.812;8.562;2023-05-24T04:47:16;233.68;;;225.43;;
62332;SDS011;48624;49.812;8.562;2023-05-24T04:49:41;257.08;;;248.10;;
62332;SDS011;48624;49.812;8.562;2023-05-24T04:52:07;286.00;;;275.63;;
62332;SDS011;48624;49.812;8.562;2023-05-24T04:54:32;274.63;;;264.65;;
62332;SDS011;48624;49.812;8.562;2023-05-24T04:56:57;271.38;;;261.38;;
62332;SDS011;48624;49.812;8.562;2023-05-24T04:59:23;313.25;;;301.80;;
62332;SDS011;48624;49.812;8.562;2023-05-24T05:01:48;386.80;;;372.20;;
62332;SDS011;48624;49.812;8.562;2023-05-24T05:04:14;317.13;;;305.42;;
62332;SDS011;48624;49.812;8.562;2023-05-24T05:06:39;341.25;;;328.85;;
62332;SDS011;48624;49.812;8.562;2023-05-24T05:09:07;349.77;;;336.75;;
62332;SDS011;48624;49.812;8.562;2023-05-24T05:11:38;312.10;;;300.92;;
62332;SDS011;48624;49.812;8.562;2023-05-24T05:14:04;282.10;;;272.17;;
62332;SDS011;48624;49.812;8.562;2023-05-24T05:16:30;385.77;;;371.42;;
62332;SDS011;48624;49.812;8.562;2023-05-24T05:18:55;349.77;;;336.90;;
62332;SDS011;48624;49.812;8.562;2023-05-24T05:21:21;365.60;;;351.70;;
62332;SDS011;48624;49.812;8.562;2023-05-24T05:23:46;317.58;;;306.63;;
62332;SDS011;48624;49.812;8.562;2023-05-24T05:26:12;329.77;;;317.83;;
62332;SDS011;48624;49.812;8.562;2023-05-24T05:28:37;282.27;;;272.08;;
62332;SDS011;48624;49.812;8.562;2023-05-24T05:31:02;300.95;;;289.85;;
62332;SDS011;48624;49.812;8.562;2023-05-24T05:33:30;211.25;;;204.07;;
62332;SDS011;48624;49.812;8.562;2023-05-24T05:35:55;307.70;;;294.55;;
62332;SDS011;48624;49.812;8.562;2023-05-24T05:38:21;258.00;;;248.02;;
62332;SDS011;48624;49.812;8.562;2023-05-24T05:40:46;291.95;;;280.95;;
62332;SDS011;48624;49.812;8.562;2023-05-24T05:43:11;276.90;;;267.05;;
62332;SDS011;48624;49.812;8.562;2023-05-24T05:45:37;264.38;;;254.48;;
62332;SDS011;48624;49.812;8.562;2023-05-24T05:48:02;259.30;;;249.88;;
62332;SDS011;48624;49.812;8.562;2023-05-24T05:50:27;313.55;;;302.25;;
62332;SDS011;48624;49.812;8.562;2023-05-24T05:52:53;240.10;;;231.55;;
62332;SDS011;48624;49.812;8.562;2023-05-24T05:55:18;183.30;;;176.60;;
62332;SDS011;48624;49.812;8.562;2023-05-24T05:57:43;184.50;;;177.60;;
62332;SDS011;48624;49.812;8.562;2023-05-24T06:00:09;192.55;;;185.18;;
62332;SDS011;48624;49.812;8.562;2023-05-24T06:02:34;223.55;;;215.45;;
62332;SDS011;48624;49.812;8.562;2023-05-24T06:05:00;213.25;;;205.30;;
62332;SDS011;48624;49.812;8.562;2023-05-24T06:07:25;190.98;;;183.35;;
62332;SDS011;48624;49.812;8.562;2023-05-24T06:09:50;184.25;;;177.73;;
62332;SDS011;48624;49.812;8.562;2023-05-24T06:12:15;203.77;;;196.35;;
62332;SDS011;48624;49.812;8.562;2023-05-24T06:14:41;174.23;;;168.15;;
62332;SDS011;48624;49.812;8.562;2023-05-24T06:17:06;176.40;;;169.95;;
62332;SDS011;48624;49.812;8.562;2023-05-24T06:19:31;181.82;;;175.48;;
62332;SDS011;48624;49.812;8.562;2023-05-24T06:21:57;179.90;;;173.45;;
62332;SDS011;48624;49.812;8.562;2023-05-24T06:24:23;186.23;;;179.40;;
62332;SDS011;48624;49.812;8.562;2023-05-24T06:26:49;212.75;;;204.80;;
62332;SDS011;48624;49.812;8.562;2023-05-24T06:29:15;247.35;;;236.43;;
62332;SDS011;48624;49.812;8.562;2023-05-24T06:31:43;167.02;;;160.80;;
62332;SDS011;48624;49.812;8.562;2023-05-24T06:34:11;182.68;;;176.13;;
62332;SDS011;48624;49.812;8.562;2023-05-24T06:36:36;191.80;;;184.70;;
62332;SDS011;48624;49.812;8.562;2023-05-24T06:39:06;157.73;;;151.75;;
62332;SDS011;48624;49.812;8.562;2023-05-24T06:41:32;153.55;;;148.07;;
62332;SDS011;48624;49.812;8.562;2023-05-24T06:43:57;109.18;;;105.07;;
62332;SDS011;48624;49.812;8.562;2023-05-24T06:46:23;94.28;;;90.00;;
62332;SDS011;48624;49.812;8.562;2023-05-24T06:48:48;147.60;;;141.60;;
62332;SDS011;48624;49.812;8.562;2023-05-24T06:51:14;83.63;;;79.55;;
62332;SDS011;48624;49.812;8.562;2023-05-24T06:53:39;131.57;;;125.82;;
62332;SDS011;48624;49.812;8.562;2023-05-24T06:56:05;90.97;;;87.35;;
62332;SDS011;48624;49.812;8.562;2023-05-24T06:58:33;39.67;;;37.30;;
62332;SDS011;48624;49.812;8.562;2023-05-24T07:01:00;59.65;;;56.85;;
62332;SDS011;48624;49.812;8.562;2023-05-24T07:03:25;32.22;;;30.35;;
62332;SDS011;48624;49.812;8.562;2023-05-24T07:05:50;38.70;;;36.55;;
62332;SDS011;48624;49.812;8.562;2023-05-24T07:08:16;24.50;;;23.17;;
62332;SDS011;48624;49.812;8.562;2023-05-24T07:10:41;55.97;;;52.92;;
62332;SDS011;48624;49.812;8.562;2023-05-24T07:13:08;25.48;;;23.67;;
62332;SDS011;48624;49.812;8.562;2023-05-24T07:15:34;47.05;;;44.67;;
62332;SDS011;48624;49.812;8.562;2023-05-24T07:17:59;43.30;;;40.72;;
62332;SDS011;48624;49.812;8.562;2023-05-24T07:20:25;29.88;;;28.00;;
62332;SDS011;48624;49.812;8.562;2023-05-24T07:22:50;27.95;;;26.48;;
62332;SDS011;48624;49.812;8.562;2023-05-24T07:25:16;36.67;;;34.85;;
62332;SDS011;48624;49.812;8.562;2023-05-24T07:27:41;25.52;;;23.88;;
62332;SDS011;48624;49.812;8.562;2023-05-24T07:30:07;101.68;;;97.47;;
62332;SDS011;48624;49.812;8.562;2023-05-24T07:32:33;41.90;;;39.80;;
62332;SDS011;48624;49.812;8.562;2023-05-24T07:34:58;34.80;;;32.58;;
62332;SDS011;48624;49.812;8.562;2023-05-24T07:37:23;31.88;;;30.48;;
62332;SDS011;48624;49.812;8.562;2023-05-24T07:39:49;17.77;;;16.58;;
62332;SDS011;48624;49.812;8.562;2023-05-24T07:42:15;30.60;;;28.40;;
62332;SDS011;48624;49.812;8.562;2023-05-24T07:44:41;11.80;;;6.30;;
62332;SDS011;48624;49.812;8.562;2023-05-24T07:47:06;5.78;;;2.25;;
62332;SDS011;48624;49.812;8.562;2023-05-24T07:49:32;10.05;;;2.13;;
62332;SDS011;48624;49.812;8.562;2023-05-24T07:51:57;11.85;;;2.63;;
62332;SDS011;48624;49.812;8.562;2023-05-24T07:54:23;6.55;;;1.85;;
62332;SDS011;48624;49.812;8.562;2023-05-24T07:56:49;5.57;;;1.77;;
62332;SDS011;48624;49.812;8.562;2023-05-24T07:59:14;12.05;;;2.33;;
62332;SDS011;48624;49.812;8.562;2023-05-24T08:01:40;7.82;;;2.20;;
62332;SDS011;48624;49.812;8.562;2023-05-24T08:04:05;6.22;;;2.05;;
62332;SDS011;48624;49.812;8.562;2023-05-24T08:06:32;8.05;;;2.47;;
62332;SDS011;48624;49.812;8.562;2023-05-24T08:08:58;7.68;;;2.75;;
62332;SDS011;48624;49.812;8.562;2023-05-24T08:11:24;12.60;;;3.00;;
62332;SDS011;48624;49.812;8.562;2023-05-24T08:13:49;6.38;;;2.10;;
62332;SDS011;48624;49.812;8.562;2023-05-24T08:16:15;10.30;;;2.53;;
62332;SDS011;48624;49.812;8.562;2023-05-24T08:18:40;13.98;;;2.42;;
62332;SDS011;48624;49.812;8.562;2023-05-24T08:21:06;14.93;;;2.92;;
62332;SDS011;48624;49.812;8.562;2023-05-24T08:23:32;6.68;;;2.40;;
62332;SDS011;48624;49.812;8.562;2023-05-24T08:25:58;9.45;;;2.88;;
62332;SDS011;48624;49.812;8.562;2023-05-24T08:28:24;8.70;;;3.50;;
62332;SDS011;48624;49.812;8.562;2023-05-24T08:30:50;9.65;;;2.40;;
62332;SDS011;48624;49.812;8.562;2023-05-24T08:33:16;7.30;;;2.17;;
62332;SDS011;48624;49.812;8.562;2023-05-24T08:35:41;8.82;;;1.85;;
62332;SDS011;48624;49.812;8.562;2023-05-24T08:38:07;7.45;;;3.28;;
62332;SDS011;48624;49.812;8.562;2023-05-24T08:40:33;10.25;;;2.65;;
62332;SDS011;48624;49.812;8.562;2023-05-24T08:43:00;7.47;;;3.25;;
62332;SDS011;48624;49.812;8.562;2023-05-24T08:45:28;6.10;;;2.67;;
62332;SDS011;48624;49.812;8.562;2023-05-24T08:47:54;10.95;;;2.13;;
62332;SDS011;48624;49.812;8.562;2023-05-24T08:50:20;10.85;;;2.33;;
62332;SDS011;48624;49.812;8.562;2023-05-24T08:52:46;5.97;;;1.70;;
62332;SDS011;48624;49.812;8.562;2023-05-24T08:55:12;12.32;;;2.17;;
62332;SDS011;48624;49.812;8.562;2023-05-24T08:57:38;8.15;;;1.92;;
62332;SDS011;48624;49.812;8.562;2023-05-24T09:00:08;9.52;;;2.13;;
62332;SDS011;48624;49.812;8.562;2023-05-24T09:02:36;10.55;;;2.72;;
62332;SDS011;48624;49.812;8.562;2023-05-24T09:05:04;6.78;;;2.17;;
62332;SDS011;48624;49.812;8.562;2023-05-24T09:07:32;7.38;;;3.00;;
62332;SDS011;48624;49.812;8.562;2023-05-24T09:09:59;8.82;;;2.33;;
62332;SDS011;48624;49.812;8.562;2023-05-24T09:12:30;6.55;;;2.08;;
62332;SDS011;48624;49.812;8.562;2023-05-24T09:15:00;9.93;;;2.13;;
62332;SDS011;48624;49.812;8.562;2023-05-24T09:17:26;13.60;;;2.50;;
62332;SDS011;48624;49.812;8.562;2023-05-24T09:19:51;8.15;;;2.65;;
62332;SDS011;48624;49.812;8.562;2023-05-24T09:22:19;7.18;;;2.35;;
62332;SDS011;48624;49.812;8.562;2023-05-24T09:24:50;7.03;;;2.85;;
62332;SDS011;48624;49.812;8.562;2023-05-24T09:27:16;7.60;;;3.03;;
62332;SDS011;48624;49.812;8.562;2023-05-24T09:29:46;8.13;;;3.38;;
62332;SDS011;48624;49.812;8.562;2023-05-24T09:32:15;10.07;;;2.50;;
62332;SDS011;48624;49.812;8.562;2023-05-24T09:34:42;8.73;;;2.15;;
62332;SDS011;48624;49.812;8.562;2023-05-24T09:37:18;7.35;;;2.25;;
62332;SDS011;48624;49.812;8.562;2023-05-24T09:39:46;11.40;;;3.00;;
62332;SDS011;48624;49.812;8.562;2023-05-24T09:42:19;6.32;;;2.50;;
62332;SDS011;48624;49.812;8.562;2023-05-24T09:47:31;5.07;;;1.60;;
62332;SDS011;48624;49.812;8.562;2023-05-24T09:49:58;4.25;;;1.60;;
62332;SDS011;48624;49.812;8.562;2023-05-24T09:52:24;6.20;;;1.90;;
62332;SDS011;48624;49.812;8.562;2023-05-24T09:54:50;4.65;;;1.67;;
62332;SDS011;48624;49.812;8.562;2023-05-24T09:57:15;4.60;;;2.42;;
62332;SDS011;48624;49.812;8.562;2023-05-24T09:59:41;5.35;;;1.80;;
62332;SDS011;48624;49.812;8.562;2023-05-24T10:02:08;8.20;;;1.70;;
62332;SDS011;48624;49.812;8.562;2023-05-24T10:04:35;5.88;;;1.63;;
62332;SDS011;48624;49.812;8.562;2023-05-24T10:07:01;8.10;;;2.15;;
62332;SDS011;48624;49.812;8.562;2023-05-24T10:09:28;7.00;;;1.90;;
62332;SDS011;48624;49.812;8.562;2023-05-24T10:11:57;7.75;;;2.25;;
62332;SDS011;48624;49.812;8.562;2023-05-24T10:14:26;9.95;;;2.63;;
62332;SDS011;48624;49.812;8.562;2023-05-24T10:16:53;7.57;;;2.25;;
62332;SDS011;48624;49.812;8.562;2023-05-24T10:19:19;8.02;;;2.00;;
62332;SDS011;48624;49.812;8.562;2023-05-24T10:21:45;10.05;;;2.03;;
62332;SDS011;48624;49.812;8.562;2023-05-24T10:24:13;6.45;;;2.38;;
62332;SDS011;48624;49.812;8.562;2023-05-24T10:26:43;6.75;;;2.40;;
62332;SDS011;48624;49.812;8.562;2023-05-24T10:29:15;7.25;;;2.28;;
62332;SDS011;48624;49.812;8.562;2023-05-24T10:31:57;9.68;;;2.22;;
62332;SDS011;48624;49.812;8.562;2023-05-24T10:34:23;7.18;;;2.30;;
62332;SDS011;48624;49.812;8.562;2023-05-24T10:36:49;7.00;;;2.75;;
62332;SDS011;48624;49.812;8.562;2023-05-24T10:39:15;7.78;;;2.55;;
62332;SDS011;48624;49.812;8.562;2023-05-24T10:41:45;7.60;;;2.25;;
62332;SDS011;48624;49.812;8.562;2023-05-24T10:44:10;7.07;;;2.53;;
62332;SDS011;48624;49.812;8.562;2023-05-24T10:49:33;9.63;;;2.72;;
62332;SDS011;48624;49.812;8.562;2023-05-24T10:52:00;8.13;;;2.10;;
62332;SDS011;48624;49.812;8.562;2023-05-24T10:54:27;8.18;;;2.20;;
62332;SDS011;48624;49.812;8.562;2023-05-24T10:56:53;12.32;;;2.72;;
62332;SDS011;48624;49.812;8.562;2023-05-24T10:59:22;5.35;;;2.08;;
62332;SDS011;48624;49.812;8.562;2023-05-24T11:01:55;7.47;;;2.78;;
62332;SDS011;48624;49.812;8.562;2023-05-24T11:04:22;6.20;;;2.55;;
62332;SDS011;48624;49.812;8.562;2023-05-24T11:06:48;7.50;;;2.28;;
62332;SDS011;48624;49.812;8.562;2023-05-24T11:09:17;5.75;;;2.10;;
62332;SDS011;48624;49.812;8.562;2023-05-24T11:11:45;5.55;;;2.20;;
62332;SDS011;48624;49.812;8.562;2023-05-24T11:14:13;5.88;;;2.05;;
62332;SDS011;48624;49.812;8.562;2023-05-24T11:16:43;9.25;;;3.97;;
62332;SDS011;48624;49.812;8.562;2023-05-24T11:19:19;10.15;;;3.85;;
62332;SDS011;48624;49.812;8.562;2023-05-24T11:21:45;9.52;;;5.00;;
62332;SDS011;48624;49.812;8.562;2023-05-24T11:24:12;9.93;;;5.70;;
62332;SDS011;48624;49.812;8.562;2023-05-24T11:26:39;11.68;;;5.50;;
62332;SDS011;48624;49.812;8.562;2023-05-24T11:29:05;13.93;;;6.38;;
62332;SDS011;48624;49.812;8.562;2023-05-24T11:31:31;9.40;;;4.32;;
62332;SDS011;48624;49.812;8.562;2023-05-24T11:33:56;8.23;;;6.25;;
62332;SDS011;48624;49.812;8.562;2023-05-24T11:36:23;9.73;;;4.00;;
62332;SDS011;48624;49.812;8.562;2023-05-24T11:38:50;4.70;;;3.40;;
62332;SDS011;48624;49.812;8.562;2023-05-24T11:41:18;4.90;;;4.38;;
62332;SDS011;48624;49.812;8.562;2023-05-24T11:43:43;8.18;;;4.13;;
62332;SDS011;48624;49.812;8.562;2023-05-24T11:46:08;7.53;;;5.05;;
62332;SDS011;48624;49.812;8.562;2023-05-24T11:48:34;12.02;;;4.70;;
62332;SDS011;48624;49.812;8.562;2023-05-24T11:51:03;7.20;;;3.83;;
62332;SDS011;48624;49.812;8.562;2023-05-24T11:53:29;6.47;;;1.98;;
62332;SDS011;48624;49.812;8.562;2023-05-24T11:55:55;6.75;;;2.70;;
62332;SDS011;48624;49.812;8.562;2023-05-24T11:58:24;6.03;;;2.25;;
62332;SDS011;48624;49.812;8.562;2023-05-24T12:00:55;6.18;;;1.92;;
62332;SDS011;48624;49.812;8.562;2023-05-24T12:03:21;7.38;;;2.47;;
62332;SDS011;48624;49.812;8.562;2023-05-24T12:05:46;7.68;;;2.33;;
62332;SDS011;48624;49.812;8.562;2023-05-24T12:08:12;9.43;;;2.60;;
62332;SDS011;48624;49.812;8.562;2023-05-24T12:10:39;9.25;;;3.10;;
62332;SDS011;48624;49.812;8.562;2023-05-24T12:13:16;6.25;;;3.25;;
62332;SDS011;48624;49.812;8.562;2023-05-24T12:15:45;6.43;;;3.30;;
62332;SDS011;48624;49.812;8.562;2023-05-24T12:18:20;5.30;;;3.45;;
62332;SDS011;48624;49.812;8.562;2023-05-24T12:20:50;6.20;;;5.32;;
62332;SDS011;48624;49.812;8.562;2023-05-24T12:23:20;41.28;;;39.33;;
62332;SDS011;48624;49.812;8.562;2023-05-24T12:25:48;36.25;;;34.13;;
62332;SDS011;48624;49.812;8.562;2023-05-24T12:28:14;41.97;;;39.88;;
62332;SDS011;48624;49.812;8.562;2023-05-24T12:30:40;52.10;;;49.38;;
62332;SDS011;48624;49.812;8.562;2023-05-24T12:33:09;49.17;;;47.22;;
62332;SDS011;48624;49.812;8.562;2023-05-24T12:35:35;223.20;;;214.90;;
62332;SDS011;48624;49.812;8.562;2023-05-24T12:38:01;310.58;;;299.50;;
62332;SDS011;48624;49.812;8.562;2023-05-24T12:40:27;293.92;;;283.42;;
62332;SDS011;48624;49.812;8.562;2023-05-24T12:42:57;168.50;;;162.27;;
62332;SDS011;48624;49.812;8.562;2023-05-24T12:45:24;205.38;;;198.13;;
62332;SDS011;48624;49.812;8.562;2023-05-24T12:47:55;123.15;;;118.28;;
62332;SDS011;48624;49.812;8.562;2023-05-24T12:50:22;210.93;;;203.45;;
62332;SDS011;48624;49.812;8.562;2023-05-24T12:52:49;233.82;;;225.05;;
62332;SDS011;48624;49.812;8.562;2023-05-24T12:55:18;414.02;;;398.27;;
62332;SDS011;48624;49.812;8.562;2023-05-24T12:57:46;364.10;;;350.85;;
62332;SDS011;48624;49.812;8.562;2023-05-24T13:00:17;385.63;;;370.75;;
62332;SDS011;48624;49.812;8.562;2023-05-24T13:02:43;367.10;;;353.70;;
62332;SDS011;48624;49.812;8.562;2023-05-24T13:05:08;448.80;;;431.02;;
62332;SDS011;48624;49.812;8.562;2023-05-24T13:07:34;424.23;;;407.65;;
62332;SDS011;48624;49.812;8.562;2023-05-24T13:10:00;418.60;;;402.42;;
62332;SDS011;48624;49.812;8.562;2023-05-24T13:12:25;481.98;;;462.42;;
62332;SDS011;48624;49.812;8.562;2023-05-24T13:14:51;513.17;;;491.88;;
62332;SDS011;48624;49.812;8.562;2023-05-24T13:17:18;501.55;;;480.42;;
62332;SDS011;48624;49.812;8.562;2023-05-24T13:19:44;420.33;;;404.02;;
62332;SDS011;48624;49.812;8.562;2023-05-24T13:22:12;470.65;;;451.45;;
62332;SDS011;48624;49.812;8.562;2023-05-24T13:24:39;495.33;;;474.45;;
62332;SDS011;48624;49.812;8.562;2023-05-24T13:27:05;445.38;;;427.60;;
62332;SDS011;48624;49.812;8.562;2023-05-24T13:29:31;431.98;;;415.13;;
62332;SDS011;48624;49.812;8.562;2023-05-24T13:31:56;508.55;;;486.88;;
62332;SDS011;48624;49.812;8.562;2023-05-24T13:34:22;504.77;;;483.52;;
62332;SDS011;48624;49.812;8.562;2023-05-24T13:36:51;482.55;;;462.77;;
62332;SDS011;48624;49.812;8.562;2023-05-24T13:39:17;513.67;;;491.88;;
62332;SDS011;48624;49.812;8.562;2023-05-24T13:41:44;495.90;;;475.02;;
62332;SDS011;48624;49.812;8.562;2023-05-24T13:44:11;453.88;;;435.30;;
62332;SDS011;48624;49.812;8.562;2023-05-24T13:46:37;469.60;;;450.65;;
62332;SDS011;48624;49.812;8.562;2023-05-24T13:49:02;413.02;;;397.15;;
62332;SDS011;48624;49.812;8.562;2023-05-24T13:51:28;441.05;;;423.27;;
62332;SDS011;48624;49.812;8.562;2023-05-24T13:53:54;426.27;;;409.52;;
62332;SDS011;48624;49.812;8.562;2023-05-24T13:56:20;398.15;;;383.15;;
62332;SDS011;48624;49.812;8.562;2023-05-24T13:58:47;409.40;;;393.60;;
62332;SDS011;48624;49.812;8.562;2023-05-24T14:01:13;387.25;;;372.48;;
62332;SDS011;48624;49.812;8.562;2023-05-24T14:03:38;357.52;;;343.55;;
62332;SDS011;48624;49.812;8.562;2023-05-24T14:06:05;313.35;;;301.92;;
62332;SDS011;48624;49.812;8.562;2023-05-24T14:08:31;252.85;;;243.80;;
62332;SDS011;48624;49.812;8.562;2023-05-24T14:10:57;259.58;;;250.18;;
62332;SDS011;48624;49.812;8.562;2023-05-24T14:13:22;141.30;;;136.30;;
62332;SDS011;48624;49.812;8.562;2023-05-24T14:15:47;88.80;;;85.05;;
62332;SDS011;48624;49.812;8.562;2023-05-24T14:18:16;62.17;;;59.53;;
62332;SDS011;48624;49.812;8.562;2023-05-24T14:20:42;17.70;;;16.73;;
62332;SDS011;48624;49.812;8.562;2023-05-24T14:23:07;7.95;;;6.35;;
62332;SDS011;48624;49.812;8.562;2023-05-24T14:25:33;5.80;;;3.97;;
62332;SDS011;48624;49.812;8.562;2023-05-24T14:27:59;6.22;;;2.90;;
62332;SDS011;48624;49.812;8.562;2023-05-24T14:30:25;7.40;;;3.60;;
62332;SDS011;48624;49.812;8.562;2023-05-24T14:32:51;4.75;;;4.28;;
62332;SDS011;48624;49.812;8.562;2023-05-24T14:35:16;8.35;;;5.63;;